sensor_id;sensor_type;location;lat;lon;timestamp;temperature;humidity
30594;DHT22;33199;47.590;8.300;2023-05-19T00:01:49;15.30;66.40
30594;DHT22;33199;47.590;8.300;2023-05-19T00:04:16;15.20;66.40
30594;DHT22;33199;47.590;8.300;2023-05-19T00:06:42;15.20;66.40
30594;DHT22;33199;47.590;8.300;2023-05-19T00:09:09;15.30;66.40
30594;DHT22;33199;47.590;8.300;2023-05-19T00:11:35;15.20;66.40
30594;DHT22;33199;47.590;8.300;2023-05-19T00:14:02;15.20;66.40
30594;DHT22;33199;47.590;8.300;2023-05-19T00:16:29;15.20;66.40
30594;DHT22;33199;47.590;8.300;2023-05-19T00:18:55;15.20;66.40
30594;DHT22;33199;47.590;8.300;2023-05-19T00:21:22;15.20;66.50
30594;DHT22;33199;47.590;8.300;2023-05-19T00:23:47;15.20;66.50
30594;DHT22;33199;47.590;8.300;2023-05-19T00:26:14;15.20;66.40
30594;DHT22;33199;47.590;8.300;2023-05-19T00:28:39;15.30;66.40
30594;DHT22;33199;47.590;8.300;2023-05-19T00:31:06;15.20;66.40
30594;DHT22;33199;47.590;8.300;2023-05-19T00:33:32;15.30;66.50
30594;DHT22;33199;47.590;8.300;2023-05-19T00:36:01;15.20;66.40
30594;DHT22;33199;47.590;8.300;2023-05-19T00:38:30;15.20;66.40
30594;DHT22;33199;47.590;8.300;2023-05-19T00:40:56;15.30;66.40
30594;DHT22;33199;47.590;8.300;2023-05-19T00:43:21;15.30;66.40
30594;DHT22;33199;47.590;8.300;2023-05-19T00:45:47;15.20;66.40
30594;DHT22;33199;47.590;8.300;2023-05-19T00:48:12;15.30;66.40
30594;DHT22;33199;47.590;8.300;2023-05-19T00:50:38;15.30;66.50
30594;DHT22;33199;47.590;8.300;2023-05-19T00:53:05;15.20;66.50
30594;DHT22;33199;47.590;8.300;2023-05-19T00:55:32;15.20;66.50
30594;DHT22;33199;47.590;8.300;2023-05-19T00:57:59;15.20;66.50
30594;DHT22;33199;47.590;8.300;2023-05-19T01:00:25;15.20;66.50
30594;DHT22;33199;47.590;8.300;2023-05-19T01:02:51;15.20;66.50
30594;DHT22;33199;47.590;8.300;2023-05-19T01:05:18;15.20;66.50
30594;DHT22;33199;47.590;8.300;2023-05-19T01:07:44;15.30;66.60
30594;DHT22;33199;47.590;8.300;2023-05-19T01:10:11;15.20;66.50
30594;DHT22;33199;47.590;8.300;2023-05-19T01:12:36;15.20;66.50
30594;DHT22;33199;47.590;8.300;2023-05-19T01:15:03;15.20;66.50
30594;DHT22;33199;47.590;8.300;2023-05-19T01:17:34;15.20;66.50
30594;DHT22;33199;47.590;8.300;2023-05-19T01:22:34;15.20;66.50
30594;DHT22;33199;47.590;8.300;2023-05-19T01:30:22;15.20;66.50
30594;DHT22;33199;47.590;8.300;2023-05-19T01:32:49;15.20;66.70
30594;DHT22;33199;47.590;8.300;2023-05-19T01:35:17;15.20;66.70
30594;DHT22;33199;47.590;8.300;2023-05-19T01:37:43;15.20;66.60
30594;DHT22;33199;47.590;8.300;2023-05-19T01:40:09;15.20;66.60
30594;DHT22;33199;47.590;8.300;2023-05-19T01:42:35;15.20;66.60
30594;DHT22;33199;47.590;8.300;2023-05-19T01:45:04;15.20;66.70
30594;DHT22;33199;47.590;8.300;2023-05-19T01:47:34;15.20;66.60
30594;DHT22;33199;47.590;8.300;2023-05-19T01:50:02;15.20;66.60
30594;DHT22;33199;47.590;8.300;2023-05-19T01:52:28;15.20;67.40
30594;DHT22;33199;47.590;8.300;2023-05-19T01:54:55;15.20;66.70
30594;DHT22;33199;47.590;8.300;2023-05-19T01:57:30;15.20;66.60
30594;DHT22;33199;47.590;8.300;2023-05-19T02:00:11;15.20;66.70
30594;DHT22;33199;47.590;8.300;2023-05-19T02:05:10;15.20;66.60
30594;DHT22;33199;47.590;8.300;2023-05-19T02:07:43;15.20;66.60
30594;DHT22;33199;47.590;8.300;2023-05-19T02:10:11;15.20;66.70
30594;DHT22;33199;47.590;8.300;2023-05-19T02:12:38;15.20;66.70
30594;DHT22;33199;47.590;8.300;2023-05-19T02:15:10;15.20;66.70
30594;DHT22;33199;47.590;8.300;2023-05-19T02:17:37;15.10;66.60
30594;DHT22;33199;47.590;8.300;2023-05-19T02:20:04;15.20;66.70
30594;DHT22;33199;47.590;8.300;2023-05-19T02:22:31;15.20;66.70
30594;DHT22;33199;47.590;8.300;2023-05-19T02:24:56;15.20;66.70
30594;DHT22;33199;47.590;8.300;2023-05-19T02:27:22;15.20;66.70
30594;DHT22;33199;47.590;8.300;2023-05-19T02:29:48;15.20;66.70
30594;DHT22;33199;47.590;8.300;2023-05-19T02:32:13;15.20;66.70
30594;DHT22;33199;47.590;8.300;2023-05-19T02:34:39;15.10;66.60
30594;DHT22;33199;47.590;8.300;2023-05-19T02:37:06;15.10;66.70
30594;DHT22;33199;47.590;8.300;2023-05-19T02:39:32;15.20;66.70
30594;DHT22;33199;47.590;8.300;2023-05-19T02:42:00;15.20;66.70
30594;DHT22;33199;47.590;8.300;2023-05-19T02:44:25;15.10;66.70
30594;DHT22;33199;47.590;8.300;2023-05-19T02:46:51;15.20;66.70
30594;DHT22;33199;47.590;8.300;2023-05-19T02:49:18;15.20;66.70
30594;DHT22;33199;47.590;8.300;2023-05-19T02:51:43;15.10;66.70
30594;DHT22;33199;47.590;8.300;2023-05-19T02:54:09;15.20;66.70
30594;DHT22;33199;47.590;8.300;2023-05-19T02:56:34;15.20;66.70
30594;DHT22;33199;47.590;8.300;2023-05-19T02:59:00;15.20;66.70
30594;DHT22;33199;47.590;8.300;2023-05-19T03:01:26;15.20;66.80
30594;DHT22;33199;47.590;8.300;2023-05-19T03:03:51;15.10;66.70
30594;DHT22;33199;47.590;8.300;2023-05-19T03:06:17;15.10;66.80
30594;DHT22;33199;47.590;8.300;2023-05-19T03:08:42;15.10;66.70
30594;DHT22;33199;47.590;8.300;2023-05-19T03:11:09;15.20;66.80
30594;DHT22;33199;47.590;8.300;2023-05-19T03:13:35;15.10;66.70
30594;DHT22;33199;47.590;8.300;2023-05-19T03:16:00;15.10;66.80
30594;DHT22;33199;47.590;8.300;2023-05-19T03:18:27;15.20;66.80
30594;DHT22;33199;47.590;8.300;2023-05-19T03:20:52;15.10;66.80
30594;DHT22;33199;47.590;8.300;2023-05-19T03:23:21;15.10;66.80
30594;DHT22;33199;47.590;8.300;2023-05-19T03:25:47;15.10;66.80
30594;DHT22;33199;47.590;8.300;2023-05-19T03:28:12;15.10;66.80
30594;DHT22;33199;47.590;8.300;2023-05-19T03:30:39;15.20;66.80
30594;DHT22;33199;47.590;8.300;2023-05-19T03:33:05;15.10;66.80
30594;DHT22;33199;47.590;8.300;2023-05-19T03:35:30;15.10;66.80
30594;DHT22;33199;47.590;8.300;2023-05-19T03:37:55;15.10;66.80
30594;DHT22;33199;47.590;8.300;2023-05-19T03:40:21;15.10;66.80
30594;DHT22;33199;47.590;8.300;2023-05-19T03:42:46;15.10;66.80
30594;DHT22;33199;47.590;8.300;2023-05-19T03:45:12;15.10;66.80
30594;DHT22;33199;47.590;8.300;2023-05-19T03:47:37;15.10;66.80
30594;DHT22;33199;47.590;8.300;2023-05-19T03:50:03;15.10;66.80
30594;DHT22;33199;47.590;8.300;2023-05-19T03:52:29;15.10;66.80
30594;DHT22;33199;47.590;8.300;2023-05-19T03:54:54;15.10;66.80
30594;DHT22;33199;47.590;8.300;2023-05-19T03:57:21;15.10;66.80
30594;DHT22;33199;47.590;8.300;2023-05-19T03:59:47;15.10;66.80
30594;DHT22;33199;47.590;8.300;2023-05-19T04:02:12;15.10;66.80
30594;DHT22;33199;47.590;8.300;2023-05-19T04:04:38;15.10;66.90
30594;DHT22;33199;47.590;8.300;2023-05-19T04:07:03;15.10;66.90
30594;DHT22;33199;47.590;8.300;2023-05-19T04:09:29;15.10;66.90
30594;DHT22;33199;47.590;8.300;2023-05-19T04:11:56;15.10;66.90
30594;DHT22;33199;47.590;8.300;2023-05-19T04:14:22;15.10;66.90
30594;DHT22;33199;47.590;8.300;2023-05-19T04:16:47;15.10;66.80
30594;DHT22;33199;47.590;8.300;2023-05-19T04:19:13;15.10;66.80
30594;DHT22;33199;47.590;8.300;2023-05-19T04:21:39;15.10;66.90
30594;DHT22;33199;47.590;8.300;2023-05-19T04:24:04;15.10;66.90
30594;DHT22;33199;47.590;8.300;2023-05-19T04:26:30;15.00;66.80
30594;DHT22;33199;47.590;8.300;2023-05-19T04:28:58;15.10;67.00
30594;DHT22;33199;47.590;8.300;2023-05-19T04:31:24;15.10;66.90
30594;DHT22;33199;47.590;8.300;2023-05-19T04:33:51;15.10;66.90
30594;DHT22;33199;47.590;8.300;2023-05-19T04:36:17;15.10;66.90
30594;DHT22;33199;47.590;8.300;2023-05-19T04:38:45;15.10;67.00
30594;DHT22;33199;47.590;8.300;2023-05-19T04:41:11;15.10;66.90
30594;DHT22;33199;47.590;8.300;2023-05-19T04:43:36;15.10;67.00
30594;DHT22;33199;47.590;8.300;2023-05-19T04:46:06;15.10;66.90
30594;DHT22;33199;47.590;8.300;2023-05-19T04:48:32;15.10;67.00
30594;DHT22;33199;47.590;8.300;2023-05-19T04:50:57;15.10;66.90
30594;DHT22;33199;47.590;8.300;2023-05-19T04:53:28;15.10;67.00
30594;DHT22;33199;47.590;8.300;2023-05-19T04:55:54;15.10;67.00
30594;DHT22;33199;47.590;8.300;2023-05-19T04:58:21;15.10;67.00
30594;DHT22;33199;47.590;8.300;2023-05-19T05:00:46;15.10;67.00
30594;DHT22;33199;47.590;8.300;2023-05-19T05:03:12;15.00;67.00
30594;DHT22;33199;47.590;8.300;2023-05-19T05:05:39;15.00;66.90
30594;DHT22;33199;47.590;8.300;2023-05-19T05:08:04;15.00;66.90
30594;DHT22;33199;47.590;8.300;2023-05-19T05:10:30;15.00;66.90
30594;DHT22;33199;47.590;8.300;2023-05-19T05:12:55;15.00;66.90
30594;DHT22;33199;47.590;8.300;2023-05-19T05:15:21;15.00;66.90
30594;DHT22;33199;47.590;8.300;2023-05-19T05:17:48;15.10;67.00
30594;DHT22;33199;47.590;8.300;2023-05-19T05:20:14;15.00;66.90
30594;DHT22;33199;47.590;8.300;2023-05-19T05:22:40;15.10;66.90
30594;DHT22;33199;47.590;8.300;2023-05-19T05:25:06;15.00;66.90
30594;DHT22;33199;47.590;8.300;2023-05-19T05:27:32;15.00;66.90
30594;DHT22;33199;47.590;8.300;2023-05-19T05:29:57;15.00;66.90
30594;DHT22;33199;47.590;8.300;2023-05-19T05:32:23;15.00;67.00
30594;DHT22;33199;47.590;8.300;2023-05-19T05:34:48;15.00;66.90
30594;DHT22;33199;47.590;8.300;2023-05-19T05:37:14;15.00;67.00
30594;DHT22;33199;47.590;8.300;2023-05-19T05:39:39;15.00;67.00
30594;DHT22;33199;47.590;8.300;2023-05-19T05:42:05;15.00;67.00
30594;DHT22;33199;47.590;8.300;2023-05-19T05:44:30;15.00;67.00
30594;DHT22;33199;47.590;8.300;2023-05-19T05:46:56;15.00;67.10
30594;DHT22;33199;47.590;8.300;2023-05-19T05:49:22;15.00;67.00
30594;DHT22;33199;47.590;8.300;2023-05-19T05:51:47;15.00;67.00
30594;DHT22;33199;47.590;8.300;2023-05-19T05:54:13;15.00;67.00
30594;DHT22;33199;47.590;8.300;2023-05-19T05:56:40;15.00;67.00
30594;DHT22;33199;47.590;8.300;2023-05-19T05:59:05;15.00;67.00
30594;DHT22;33199;47.590;8.300;2023-05-19T06:01:31;15.00;67.10
30594;DHT22;33199;47.590;8.300;2023-05-19T06:03:56;15.00;65.20
30594;DHT22;33199;47.590;8.300;2023-05-19T06:06:22;15.00;66.10
30594;DHT22;33199;47.590;8.300;2023-05-19T06:08:47;14.90;66.20
30594;DHT22;33199;47.590;8.300;2023-05-19T06:11:13;14.90;66.60
30594;DHT22;33199;47.590;8.300;2023-05-19T06:13:39;14.90;66.50
30594;DHT22;33199;47.590;8.300;2023-05-19T06:16:07;14.90;66.30
30594;DHT22;33199;47.590;8.300;2023-05-19T06:18:33;15.00;66.20
30594;DHT22;33199;47.590;8.300;2023-05-19T06:20:58;15.00;66.40
30594;DHT22;33199;47.590;8.300;2023-05-19T06:23:24;14.90;66.20
30594;DHT22;33199;47.590;8.300;2023-05-19T06:25:51;14.90;66.20
30594;DHT22;33199;47.590;8.300;2023-05-19T06:28:16;15.00;66.40
30594;DHT22;33199;47.590;8.300;2023-05-19T06:30:42;15.00;66.40
30594;DHT22;33199;47.590;8.300;2023-05-19T06:33:07;15.00;66.40
30594;DHT22;33199;47.590;8.300;2023-05-19T06:35:33;14.90;66.30
30594;DHT22;33199;47.590;8.300;2023-05-19T06:37:58;15.00;66.40
30594;DHT22;33199;47.590;8.300;2023-05-19T06:40:24;15.00;66.30
30594;DHT22;33199;47.590;8.300;2023-05-19T06:42:49;15.00;66.40
30594;DHT22;33199;47.590;8.300;2023-05-19T06:45:15;15.00;66.50
30594;DHT22;33199;47.590;8.300;2023-05-19T06:47:41;14.90;66.40
30594;DHT22;33199;47.590;8.300;2023-05-19T06:50:09;15.00;66.50
30594;DHT22;33199;47.590;8.300;2023-05-19T06:52:34;15.00;66.50
30594;DHT22;33199;47.590;8.300;2023-05-19T06:55:00;15.00;66.40
30594;DHT22;33199;47.590;8.300;2023-05-19T06:57:26;15.00;66.40
30594;DHT22;33199;47.590;8.300;2023-05-19T06:59:51;14.90;66.50
30594;DHT22;33199;47.590;8.300;2023-05-19T07:02:17;14.90;66.50
30594;DHT22;33199;47.590;8.300;2023-05-19T07:04:42;14.90;66.50
30594;DHT22;33199;47.590;8.300;2023-05-19T07:07:08;15.00;66.60
30594;DHT22;33199;47.590;8.300;2023-05-19T07:09:33;14.90;66.50
30594;DHT22;33199;47.590;8.300;2023-05-19T07:11:59;15.00;66.60
30594;DHT22;33199;47.590;8.300;2023-05-19T07:14:25;14.90;66.50
30594;DHT22;33199;47.590;8.300;2023-05-19T07:16:51;14.90;66.60
30594;DHT22;33199;47.590;8.300;2023-05-19T07:19:16;14.90;66.60
30594;DHT22;33199;47.590;8.300;2023-05-19T07:21:44;14.90;66.60
30594;DHT22;33199;47.590;8.300;2023-05-19T07:24:10;14.90;66.60
30594;DHT22;33199;47.590;8.300;2023-05-19T07:26:35;14.90;66.60
30594;DHT22;33199;47.590;8.300;2023-05-19T07:29:01;14.90;66.70
30594;DHT22;33199;47.590;8.300;2023-05-19T07:31:26;14.90;66.70
30594;DHT22;33199;47.590;8.300;2023-05-19T07:33:52;14.90;67.50
30594;DHT22;33199;47.590;8.300;2023-05-19T07:36:17;14.90;66.60
30594;DHT22;33199;47.590;8.300;2023-05-19T07:38:44;14.90;66.60
30594;DHT22;33199;47.590;8.300;2023-05-19T07:41:10;14.90;66.60
30594;DHT22;33199;47.590;8.300;2023-05-19T07:43:36;14.90;66.50
30594;DHT22;33199;47.590;8.300;2023-05-19T07:46:02;14.90;61.80
30594;DHT22;33199;47.590;8.300;2023-05-19T07:48:27;14.90;62.50
30594;DHT22;33199;47.590;8.300;2023-05-19T07:50:53;14.80;61.20
30594;DHT22;33199;47.590;8.300;2023-05-19T07:53:19;14.80;60.90
30594;DHT22;33199;47.590;8.300;2023-05-19T07:55:45;14.70;60.90
30594;DHT22;33199;47.590;8.300;2023-05-19T07:58:10;14.70;61.30
30594;DHT22;33199;47.590;8.300;2023-05-19T08:00:36;14.70;61.70
30594;DHT22;33199;47.590;8.300;2023-05-19T08:03:01;14.70;62.90
30594;DHT22;33199;47.590;8.300;2023-05-19T08:05:27;14.70;64.00
30594;DHT22;33199;47.590;8.300;2023-05-19T08:07:54;14.70;64.70
30594;DHT22;33199;47.590;8.300;2023-05-19T08:10:20;14.80;64.90
30594;DHT22;33199;47.590;8.300;2023-05-19T08:12:46;14.80;64.70
30594;DHT22;33199;47.590;8.300;2023-05-19T08:15:11;14.80;65.00
30594;DHT22;33199;47.590;8.300;2023-05-19T08:17:37;14.80;65.10
30594;DHT22;33199;47.590;8.300;2023-05-19T08:20:03;14.80;65.10
30594;DHT22;33199;47.590;8.300;2023-05-19T08:22:30;14.80;65.10
30594;DHT22;33199;47.590;8.300;2023-05-19T08:24:55;14.80;65.10
30594;DHT22;33199;47.590;8.300;2023-05-19T08:27:22;14.80;65.00
30594;DHT22;33199;47.590;8.300;2023-05-19T08:29:48;14.80;64.90
30594;DHT22;33199;47.590;8.300;2023-05-19T08:32:13;14.80;64.80
30594;DHT22;33199;47.590;8.300;2023-05-19T08:34:39;14.80;64.90
30594;DHT22;33199;47.590;8.300;2023-05-19T08:37:05;14.80;64.70
30594;DHT22;33199;47.590;8.300;2023-05-19T08:39:31;14.80;65.00
30594;DHT22;33199;47.590;8.300;2023-05-19T08:41:58;14.80;64.90
30594;DHT22;33199;47.590;8.300;2023-05-19T08:44:24;14.80;64.90
30594;DHT22;33199;47.590;8.300;2023-05-19T08:46:49;14.80;64.90
30594;DHT22;33199;47.590;8.300;2023-05-19T08:49:17;14.80;65.00
30594;DHT22;33199;47.590;8.300;2023-05-19T08:54:13;14.80;65.00
30594;DHT22;33199;47.590;8.300;2023-05-19T08:56:38;14.90;65.20
30594;DHT22;33199;47.590;8.300;2023-05-19T08:59:04;14.90;65.20
30594;DHT22;33199;47.590;8.300;2023-05-19T09:01:30;14.90;65.20
30594;DHT22;33199;47.590;8.300;2023-05-19T09:03:56;14.90;65.30
30594;DHT22;33199;47.590;8.300;2023-05-19T09:06:22;14.90;65.30
30594;DHT22;33199;47.590;8.300;2023-05-19T09:08:48;14.90;65.30
30594;DHT22;33199;47.590;8.300;2023-05-19T09:11:13;14.90;65.40
30594;DHT22;33199;47.590;8.300;2023-05-19T09:13:39;14.90;65.40
30594;DHT22;33199;47.590;8.300;2023-05-19T09:16:05;14.90;65.40
30594;DHT22;33199;47.590;8.300;2023-05-19T09:18:30;14.90;65.40
30594;DHT22;33199;47.590;8.300;2023-05-19T09:20:56;14.90;65.40
30594;DHT22;33199;47.590;8.300;2023-05-19T09:23:24;14.90;65.50
30594;DHT22;33199;47.590;8.300;2023-05-19T09:25:52;14.80;65.50
30594;DHT22;33199;47.590;8.300;2023-05-19T09:33:25;14.80;66.30
30594;DHT22;33199;47.590;8.300;2023-05-19T09:35:52;14.90;65.70
30594;DHT22;33199;47.590;8.300;2023-05-19T09:38:17;14.90;65.70
30594;DHT22;33199;47.590;8.300;2023-05-19T09:40:43;14.90;65.70
30594;DHT22;33199;47.590;8.300;2023-05-19T09:43:09;14.90;65.80
30594;DHT22;33199;47.590;8.300;2023-05-19T09:45:35;14.90;65.80
30594;DHT22;33199;47.590;8.300;2023-05-19T09:48:03;14.90;65.80
30594;DHT22;33199;47.590;8.300;2023-05-19T09:50:29;14.90;65.80
30594;DHT22;33199;47.590;8.300;2023-05-19T09:52:56;14.90;65.90
30594;DHT22;33199;47.590;8.300;2023-05-19T09:55:24;14.90;65.90
30594;DHT22;33199;47.590;8.300;2023-05-19T09:57:50;14.90;65.90
30594;DHT22;33199;47.590;8.300;2023-05-19T10:00:17;15.00;66.00
30594;DHT22;33199;47.590;8.300;2023-05-19T10:02:43;14.90;66.00
30594;DHT22;33199;47.590;8.300;2023-05-19T10:05:18;14.90;66.70
30594;DHT22;33199;47.590;8.300;2023-05-19T10:07:45;14.90;66.00
30594;DHT22;33199;47.590;8.300;2023-05-19T10:10:13;15.00;66.00
30594;DHT22;33199;47.590;8.300;2023-05-19T10:12:39;15.00;66.10
30594;DHT22;33199;47.590;8.300;2023-05-19T10:15:06;15.00;66.10
30594;DHT22;33199;47.590;8.300;2023-05-19T10:17:33;15.00;66.10
30594;DHT22;33199;47.590;8.300;2023-05-19T10:19:59;15.00;66.10
30594;DHT22;33199;47.590;8.300;2023-05-19T10:22:25;15.00;66.10
30594;DHT22;33199;47.590;8.300;2023-05-19T10:24:52;15.00;66.20
30594;DHT22;33199;47.590;8.300;2023-05-19T10:27:20;15.00;66.20
30594;DHT22;33199;47.590;8.300;2023-05-19T10:29:47;15.00;66.20
30594;DHT22;33199;47.590;8.300;2023-05-19T10:32:14;15.00;66.20
30594;DHT22;33199;47.590;8.300;2023-05-19T10:38:08;15.00;66.20
30594;DHT22;33199;47.590;8.300;2023-05-19T10:40:20;15.00;66.20
30594;DHT22;33199;47.590;8.300;2023-05-19T10:45:21;15.00;66.20
30594;DHT22;33199;47.590;8.300;2023-05-19T10:47:51;15.00;66.20
30594;DHT22;33199;47.590;8.300;2023-05-19T10:50:16;15.00;66.20
30594;DHT22;33199;47.590;8.300;2023-05-19T10:52:42;15.00;66.30
30594;DHT22;33199;47.590;8.300;2023-05-19T10:55:11;15.00;66.20
30594;DHT22;33199;47.590;8.300;2023-05-19T10:57:46;15.00;66.20
30594;DHT22;33199;47.590;8.300;2023-05-19T11:00:26;15.10;66.30
30594;DHT22;33199;47.590;8.300;2023-05-19T11:02:52;15.10;66.40
30594;DHT22;33199;47.590;8.300;2023-05-19T11:05:26;15.10;66.30
30594;DHT22;33199;47.590;8.300;2023-05-19T11:07:57;15.10;66.30
30594;DHT22;33199;47.590;8.300;2023-05-19T11:10:26;15.10;66.30
30594;DHT22;33199;47.590;8.300;2023-05-19T11:12:51;15.10;66.30
30594;DHT22;33199;47.590;8.300;2023-05-19T11:15:17;15.10;66.30
30594;DHT22;33199;47.590;8.300;2023-05-19T11:17:46;15.10;66.40
30594;DHT22;33199;47.590;8.300;2023-05-19T11:20:19;15.10;66.50
30594;DHT22;33199;47.590;8.300;2023-05-19T11:25:52;15.10;66.50
30594;DHT22;33199;47.590;8.300;2023-05-19T11:28:19;15.10;66.60
30594;DHT22;33199;47.590;8.300;2023-05-19T11:30:46;15.10;66.60
30594;DHT22;33199;47.590;8.300;2023-05-19T11:33:14;15.10;66.60
30594;DHT22;33199;47.590;8.300;2023-05-19T11:35:44;15.10;66.60
30594;DHT22;33199;47.590;8.300;2023-05-19T11:38:10;15.10;66.60
30594;DHT22;33199;47.590;8.300;2023-05-19T11:40:37;15.10;66.60
30594;DHT22;33199;47.590;8.300;2023-05-19T11:43:03;15.20;66.60
30594;DHT22;33199;47.590;8.300;2023-05-19T11:45:30;15.10;66.60
30594;DHT22;33199;47.590;8.300;2023-05-19T11:47:56;15.20;66.70
30594;DHT22;33199;47.590;8.300;2023-05-19T11:50:22;15.20;66.50
30594;DHT22;33199;47.590;8.300;2023-05-19T11:52:49;15.20;66.70
30594;DHT22;33199;47.590;8.300;2023-05-19T11:55:17;15.20;66.60
30594;DHT22;33199;47.590;8.300;2023-05-19T11:57:58;15.20;66.70
30594;DHT22;33199;47.590;8.300;2023-05-19T12:00:24;15.20;66.60
30594;DHT22;33199;47.590;8.300;2023-05-19T12:02:50;15.20;66.70
30594;DHT22;33199;47.590;8.300;2023-05-19T12:05:22;15.20;66.70
30594;DHT22;33199;47.590;8.300;2023-05-19T12:07:50;15.20;66.70
30594;DHT22;33199;47.590;8.300;2023-05-19T12:10:17;15.20;66.50
30594;DHT22;33199;47.590;8.300;2023-05-19T12:12:44;15.20;66.60
30594;DHT22;33199;47.590;8.300;2023-05-19T12:15:10;15.30;66.60
30594;DHT22;33199;47.590;8.300;2023-05-19T12:17:35;15.20;66.70
30594;DHT22;33199;47.590;8.300;2023-05-19T12:20:01;15.30;66.60
30594;DHT22;33199;47.590;8.300;2023-05-19T12:22:27;15.30;66.70
30594;DHT22;33199;47.590;8.300;2023-05-19T12:24:52;15.30;66.60
30594;DHT22;33199;47.590;8.300;2023-05-19T12:27:19;15.40;68.60
30594;DHT22;33199;47.590;8.300;2023-05-19T12:29:50;15.60;68.70
30594;DHT22;33199;47.590;8.300;2023-05-19T12:32:16;15.70;67.00
30594;DHT22;33199;47.590;8.300;2023-05-19T12:34:42;15.90;66.30
30594;DHT22;33199;47.590;8.300;2023-05-19T12:37:09;16.00;66.20
30594;DHT22;33199;47.590;8.300;2023-05-19T12:39:34;16.10;66.20
30594;DHT22;33199;47.590;8.300;2023-05-19T12:42:01;16.20;65.50
30594;DHT22;33199;47.590;8.300;2023-05-19T12:44:26;16.30;64.90
30594;DHT22;33199;47.590;8.300;2023-05-19T12:46:52;16.30;65.20
30594;DHT22;33199;47.590;8.300;2023-05-19T12:49:17;16.40;65.70
30594;DHT22;33199;47.590;8.300;2023-05-19T12:51:50;16.40;65.30
30594;DHT22;33199;47.590;8.300;2023-05-19T12:54:22;16.50;61.90
30594;DHT22;33199;47.590;8.300;2023-05-19T12:56:49;16.60;60.60
30594;DHT22;33199;47.590;8.300;2023-05-19T12:59:24;16.60;60.60
30594;DHT22;33199;47.590;8.300;2023-05-19T13:01:56;16.60;61.40
30594;DHT22;33199;47.590;8.300;2023-05-19T13:04:23;16.50;61.80
30594;DHT22;33199;47.590;8.300;2023-05-19T13:06:48;16.50;62.30
30594;DHT22;33199;47.590;8.300;2023-05-19T13:09:14;16.50;62.70
30594;DHT22;33199;47.590;8.300;2023-05-19T13:11:41;16.40;63.10
30594;DHT22;33199;47.590;8.300;2023-05-19T13:14:08;16.40;63.30
30594;DHT22;33199;47.590;8.300;2023-05-19T13:16:33;16.30;63.50
30594;DHT22;33199;47.590;8.300;2023-05-19T13:18:59;16.30;64.60
30594;DHT22;33199;47.590;8.300;2023-05-19T13:21:25;16.20;64.00
30594;DHT22;33199;47.590;8.300;2023-05-19T13:23:50;16.20;64.40
30594;DHT22;33199;47.590;8.300;2023-05-19T13:26:17;16.20;64.50
30594;DHT22;33199;47.590;8.300;2023-05-19T13:28:42;16.20;64.60
30594;DHT22;33199;47.590;8.300;2023-05-19T13:31:08;16.10;64.70
30594;DHT22;33199;47.590;8.300;2023-05-19T13:33:33;16.20;64.70
30594;DHT22;33199;47.590;8.300;2023-05-19T13:35:59;16.10;64.50
30594;DHT22;33199;47.590;8.300;2023-05-19T13:38:24;16.10;64.50
30594;DHT22;33199;47.590;8.300;2023-05-19T13:40:50;16.10;64.80
30594;DHT22;33199;47.590;8.300;2023-05-19T13:43:15;16.10;64.70
30594;DHT22;33199;47.590;8.300;2023-05-19T13:45:41;16.10;64.90
30594;DHT22;33199;47.590;8.300;2023-05-19T13:48:08;16.10;65.10
30594;DHT22;33199;47.590;8.300;2023-05-19T13:50:35;16.10;65.10
30594;DHT22;33199;47.590;8.300;2023-05-19T13:53:00;16.10;65.40
30594;DHT22;33199;47.590;8.300;2023-05-19T13:55:26;16.10;65.50
30594;DHT22;33199;47.590;8.300;2023-05-19T13:57:52;16.00;65.30
30594;DHT22;33199;47.590;8.300;2023-05-19T14:00:17;16.10;65.50
30594;DHT22;33199;47.590;8.300;2023-05-19T14:02:43;16.10;64.40
30594;DHT22;33199;47.590;8.300;2023-05-19T14:05:09;16.10;64.60
30594;DHT22;33199;47.590;8.300;2023-05-19T14:07:34;16.10;64.90
30594;DHT22;33199;47.590;8.300;2023-05-19T14:10:00;16.10;65.50
30594;DHT22;33199;47.590;8.300;2023-05-19T14:12:26;16.10;64.80
30594;DHT22;33199;47.590;8.300;2023-05-19T14:14:52;16.10;65.10
30594;DHT22;33199;47.590;8.300;2023-05-19T14:17:17;16.10;65.20
30594;DHT22;33199;47.590;8.300;2023-05-19T14:19:43;16.10;65.30
30594;DHT22;33199;47.590;8.300;2023-05-19T14:22:08;16.10;65.40
30594;DHT22;33199;47.590;8.300;2023-05-19T14:24:34;16.10;65.50
30594;DHT22;33199;47.590;8.300;2023-05-19T14:26:59;16.10;65.50
30594;DHT22;33199;47.590;8.300;2023-05-19T14:29:25;16.10;65.60
30594;DHT22;33199;47.590;8.300;2023-05-19T14:31:50;16.10;65.60
30594;DHT22;33199;47.590;8.300;2023-05-19T14:34:16;16.10;65.50
30594;DHT22;33199;47.590;8.300;2023-05-19T14:36:45;16.10;65.60
30594;DHT22;33199;47.590;8.300;2023-05-19T14:39:11;16.10;65.70
30594;DHT22;33199;47.590;8.300;2023-05-19T14:41:36;16.10;65.50
30594;DHT22;33199;47.590;8.300;2023-05-19T14:44:02;16.10;65.70
30594;DHT22;33199;47.590;8.300;2023-05-19T14:46:27;16.10;65.70
30594;DHT22;33199;47.590;8.300;2023-05-19T14:48:53;16.10;65.20
30594;DHT22;33199;47.590;8.300;2023-05-19T14:51:18;16.10;64.70
30594;DHT22;33199;47.590;8.300;2023-05-19T14:53:44;16.10;64.90
30594;DHT22;33199;47.590;8.300;2023-05-19T14:56:09;16.10;65.00
30594;DHT22;33199;47.590;8.300;2023-05-19T14:58:35;16.10;64.80
30594;DHT22;33199;47.590;8.300;2023-05-19T15:01:00;16.10;65.10
30594;DHT22;33199;47.590;8.300;2023-05-19T15:03:26;16.10;65.10
30594;DHT22;33199;47.590;8.300;2023-05-19T15:05:51;16.10;65.90
30594;DHT22;33199;47.590;8.300;2023-05-19T15:08:17;16.10;66.50
30594;DHT22;33199;47.590;8.300;2023-05-19T15:10:42;16.10;66.90
30594;DHT22;33199;47.590;8.300;2023-05-19T15:13:08;16.00;66.60
30594;DHT22;33199;47.590;8.300;2023-05-19T15:15:33;16.10;64.90
30594;DHT22;33199;47.590;8.300;2023-05-19T15:17:59;16.20;64.90
30594;DHT22;33199;47.590;8.300;2023-05-19T15:20:24;16.20;64.90
30594;DHT22;33199;47.590;8.300;2023-05-19T15:22:50;16.20;64.80
30594;DHT22;33199;47.590;8.300;2023-05-19T15:25:15;16.30;64.90
30594;DHT22;33199;47.590;8.300;2023-05-19T15:27:41;16.30;64.80
30594;DHT22;33199;47.590;8.300;2023-05-19T15:30:07;16.30;65.00
30594;DHT22;33199;47.590;8.300;2023-05-19T15:32:33;16.30;65.00
30594;DHT22;33199;47.590;8.300;2023-05-19T15:34:58;16.30;64.90
30594;DHT22;33199;47.590;8.300;2023-05-19T15:37:24;16.40;64.90
30594;DHT22;33199;47.590;8.300;2023-05-19T15:39:49;16.30;65.00
30594;DHT22;33199;47.590;8.300;2023-05-19T15:42:15;16.40;65.10
30594;DHT22;33199;47.590;8.300;2023-05-19T15:44:41;16.40;65.00
30594;DHT22;33199;47.590;8.300;2023-05-19T15:47:06;16.40;65.00
30594;DHT22;33199;47.590;8.300;2023-05-19T15:49:32;16.40;65.00
30594;DHT22;33199;47.590;8.300;2023-05-19T15:51:58;16.40;65.00